createdAt,value
2023-03-08T00:00:38.230Z,0.10
2023-03-08T00:03:16.397Z,0.10
2023-03-08T00:05:44.788Z,0.10
2023-03-08T00:08:12.181Z,0.10
2023-03-08T00:10:39.211Z,0.00
2023-03-08T00:13:06.471Z,0.10
2023-03-08T00:15:33.469Z,0.00
2023-03-08T00:18:01.156Z,0.10
2023-03-08T00:20:28.213Z,0.00
2023-03-08T00:22:55.710Z,0.00
2023-03-08T00:25:22.654Z,0.00
2023-03-08T00:27:49.999Z,0.00
2023-03-08T00:30:17.424Z,0.10
2023-03-08T00:32:44.745Z,0.00
2023-03-08T00:35:11.694Z,0.00
2023-03-08T00:37:38.944Z,0.00
2023-03-08T00:40:06.633Z,0.00
2023-03-08T00:42:34.136Z,0.10
2023-03-08T00:45:01.089Z,0.00
2023-03-08T00:47:28.399Z,0.10
2023-03-08T00:49:55.386Z,0.10
2023-03-08T00:52:22.650Z,0.10
2023-03-08T00:54:49.579Z,0.10
2023-03-08T00:57:17.099Z,0.10
2023-03-08T00:59:44.068Z,0.10
2023-03-08T01:02:11.668Z,0.10
2023-03-08T01:04:38.620Z,0.10
2023-03-08T01:07:06.094Z,0.10
2023-03-08T01:09:33.125Z,0.10
2023-03-08T01:12:00.331Z,0.10
2023-03-08T01:14:27.434Z,0.10
2023-03-08T01:16:55.048Z,0.10
2023-03-08T01:19:22.007Z,0.10
2023-03-08T01:21:49.456Z,0.10
2023-03-08T01:24:16.468Z,0.10
2023-03-08T01:26:43.742Z,0.10
2023-03-08T01:29:10.681Z,0.20
2023-03-08T01:31:37.920Z,0.20
2023-03-08T01:34:04.855Z,0.20
2023-03-08T01:36:32.248Z,0.20
2023-03-08T01:39:01.496Z,0.20
2023-03-08T01:41:31.197Z,0.20
2023-03-08T01:43:58.724Z,0.20
2023-03-08T01:46:36.264Z,0.20
2023-03-08T01:49:14.890Z,0.20
2023-03-08T01:52:17.812Z,0.10
2023-03-08T01:54:48.403Z,0.10
2023-03-08T01:57:23.769Z,0.10
2023-03-08T01:59:51.771Z,0.10
2023-03-08T02:02:29.923Z,0.10
2023-03-08T02:04:57.046Z,0.10
2023-03-08T02:07:24.288Z,0.10
2023-03-08T02:09:51.358Z,0.10
2023-03-08T02:12:19.553Z,0.10
2023-03-08T02:14:46.581Z,0.10
2023-03-08T02:17:14.149Z,0.20
2023-03-08T02:19:49.867Z,0.20
2023-03-08T02:22:17.721Z,3.80
2023-03-08T02:24:44.692Z,0.20
2023-03-08T02:27:19.903Z,0.20
2023-03-08T02:29:47.178Z,0.20
2023-03-08T02:32:15.827Z,0.10
2023-03-08T02:34:43.231Z,0.10
2023-03-08T02:37:10.653Z,0.10
2023-03-08T02:39:37.752Z,0.10
2023-03-08T02:42:05.180Z,0.00
2023-03-08T02:44:32.102Z,0.00
2023-03-08T02:46:59.375Z,0.00
2023-03-08T02:49:26.318Z,-0.10
2023-03-08T02:51:53.850Z,-0.10
2023-03-08T02:54:20.956Z,-0.10
2023-03-08T02:56:48.530Z,-0.20
2023-03-08T02:59:15.543Z,0.10
2023-03-08T03:01:42.937Z,-0.20
2023-03-08T03:04:10.056Z,-0.20
2023-03-08T03:06:37.396Z,-0.20
2023-03-08T03:09:10.577Z,-0.20
2023-03-08T03:11:39.640Z,-0.10
2023-03-08T03:14:07.193Z,-0.20
2023-03-08T03:16:34.441Z,-0.20
2023-03-08T03:19:01.388Z,-0.20
2023-03-08T03:21:28.960Z,-0.20
2023-03-08T03:23:56.221Z,-0.30
2023-03-08T03:26:24.761Z,-0.30
2023-03-08T03:28:52.543Z,-0.40
2023-03-08T03:31:22.600Z,-0.40
2023-03-08T03:33:50.165Z,-0.40
2023-03-08T03:36:20.277Z,-0.40
2023-03-08T03:38:47.746Z,-0.30
2023-03-08T03:41:18.298Z,-0.30
2023-03-08T03:43:45.996Z,-0.30
2023-03-08T03:46:16.455Z,-0.30
2023-03-08T03:48:43.923Z,-0.40
2023-03-08T03:51:14.363Z,-0.30
2023-03-08T03:53:41.998Z,-0.30
2023-03-08T03:56:21.310Z,-0.20
2023-03-08T03:58:48.697Z,-0.20
2023-03-08T04:01:20.976Z,-0.10
2023-03-08T04:03:49.218Z,-0.10
2023-03-08T04:06:28.373Z,-0.10
2023-03-08T04:09:00.773Z,-0.10
2023-03-08T04:11:31.645Z,-0.20
2023-03-08T04:13:58.673Z,-0.20
2023-03-08T04:16:29.628Z,-0.30
2023-03-08T04:18:59.258Z,-0.30
2023-03-08T04:21:27.269Z,-0.40
2023-03-08T04:23:54.647Z,-0.50
2023-03-08T04:26:22.424Z,-0.60
2023-03-08T04:28:49.463Z,-0.60
2023-03-08T04:31:26.645Z,-0.70
2023-03-08T04:33:54.671Z,-0.80
2023-03-08T04:36:23.111Z,-0.90
2023-03-08T04:38:51.197Z,-0.80
2023-03-08T04:41:19.450Z,-1.00
2023-03-08T04:43:51.998Z,-1.00
2023-03-08T04:46:22.434Z,-1.10
2023-03-08T04:48:52.814Z,-1.10
2023-03-08T04:51:20.738Z,-1.10
2023-03-08T04:53:47.813Z,-1.10
2023-03-08T04:56:16.264Z,-1.20
2023-03-08T04:58:43.795Z,-1.20
2023-03-08T05:01:22.268Z,-1.10
2023-03-08T05:03:49.874Z,-1.20
2023-03-08T05:06:18.565Z,-1.30
2023-03-08T05:08:45.954Z,-1.30
2023-03-08T05:11:25.639Z,-1.30
2023-03-08T05:13:57.548Z,-1.40
2023-03-08T05:16:25.993Z,-1.40
2023-03-08T05:18:53.321Z,-1.40
2023-03-08T05:21:22.571Z,-1.50
2023-03-08T05:23:49.880Z,-1.50
2023-03-08T05:26:18.467Z,-1.50
2023-03-08T05:28:45.524Z,-1.50
2023-03-08T05:31:17.809Z,-1.50
2023-03-08T05:33:46.653Z,-1.50
2023-03-08T05:36:15.335Z,-1.50
2023-03-08T05:38:43.067Z,-1.50
2023-03-08T05:41:14.150Z,-1.50
2023-03-08T05:43:41.690Z,-1.40
2023-03-08T05:46:17.985Z,-1.30
2023-03-08T05:48:45.612Z,-1.10
2023-03-08T05:51:15.683Z,-0.80
2023-03-08T05:53:43.290Z,-0.90
2023-03-08T05:56:21.831Z,-1.00
2023-03-08T05:58:49.391Z,-0.90
2023-03-08T06:01:18.419Z,-0.30
2023-03-08T06:03:46.802Z,0.40
2023-03-08T06:06:14.311Z,0.70
2023-03-08T06:08:42.066Z,1.00
2023-03-08T06:11:10.190Z,1.50
2023-03-08T06:13:37.632Z,1.70
2023-03-08T06:16:05.383Z,2.10
2023-03-08T06:18:32.692Z,2.30
2023-03-08T06:21:01.375Z,2.60
2023-03-08T06:23:30.127Z,3.00
2023-03-08T06:25:58.736Z,3.50
2023-03-08T06:28:27.384Z,4.10
2023-03-08T06:30:55.491Z,4.20
2023-03-08T06:33:25.450Z,5.10
2023-03-08T06:36:05.334Z,4.70
2023-03-08T06:38:34.957Z,4.90
2023-03-08T06:41:03.200Z,5.20
2023-03-08T06:43:30.494Z,5.60
2023-03-08T06:45:57.842Z,5.80
2023-03-08T06:48:24.926Z,6.10
2023-03-08T06:50:52.284Z,6.20
2023-03-08T06:53:19.823Z,6.40
2023-03-08T06:55:47.412Z,6.70
2023-03-08T06:58:14.533Z,7.10
2023-03-08T07:00:42.073Z,7.50
2023-03-08T07:03:10.276Z,7.80
2023-03-08T07:05:38.790Z,8.30
2023-03-08T07:08:06.448Z,8.50
2023-03-08T07:10:34.707Z,8.70
2023-03-08T07:13:01.797Z,8.80
2023-03-08T07:15:29.241Z,8.90
2023-03-08T07:17:58.279Z,11.90
2023-03-08T07:20:27.645Z,9.30
2023-03-08T07:22:54.697Z,9.60
2023-03-08T07:25:22.289Z,10.20
2023-03-08T07:27:49.489Z,10.30
2023-03-08T07:30:17.311Z,10.50
2023-03-08T07:32:44.630Z,10.80
2023-03-08T07:35:14.710Z,10.70
2023-03-08T07:37:45.116Z,10.80
2023-03-08T07:40:14.331Z,11.10
2023-03-08T07:42:41.464Z,11.30
2023-03-08T07:45:10.259Z,11.20
2023-03-08T07:47:37.303Z,11.10
2023-03-08T07:50:05.140Z,11.30
2023-03-08T07:52:32.225Z,11.30
2023-03-08T07:55:02.252Z,11.40
2023-03-08T07:57:29.269Z,11.90
2023-03-08T07:59:56.975Z,10.90
2023-03-08T08:02:24.114Z,10.80
2023-03-08T08:04:51.879Z,11.30
2023-03-08T08:07:19.135Z,11.20
2023-03-08T08:09:46.677Z,9.30
2023-03-08T08:12:14.143Z,7.60
2023-03-08T08:14:42.024Z,6.20
2023-03-08T08:17:09.272Z,5.40
2023-03-08T08:19:38.136Z,7.30
2023-03-08T08:22:06.102Z,7.30
2023-03-08T08:24:34.104Z,6.70
2023-03-08T08:27:01.234Z,5.70
2023-03-08T08:29:28.737Z,5.30
2023-03-08T08:31:56.976Z,4.50
2023-03-08T08:34:24.713Z,4.10
2023-03-08T08:36:51.878Z,4.80
2023-03-08T08:39:19.707Z,4.40
2023-03-08T08:41:49.695Z,4.00
2023-03-08T08:44:17.206Z,3.90
2023-03-08T08:46:44.304Z,3.30
2023-03-08T08:49:12.291Z,5.80
2023-03-08T08:51:39.538Z,7.10
2023-03-08T08:54:07.230Z,8.10
2023-03-08T08:56:34.659Z,11.30
2023-03-08T08:59:02.963Z,13.70
2023-03-08T09:01:32.979Z,15.10
2023-03-08T09:04:00.877Z,15.80
2023-03-08T09:06:29.300Z,16.30
2023-03-08T09:08:58.768Z,16.50
2023-03-08T09:11:27.521Z,16.90
2023-03-08T09:13:55.270Z,17.00
2023-03-08T09:16:27.038Z,16.60
2023-03-08T09:18:56.833Z,16.00
2023-03-08T09:21:25.590Z,15.60
2023-03-08T09:23:53.104Z,15.70
2023-03-08T09:26:20.351Z,16.40
2023-03-08T09:28:47.798Z,17.10
2023-03-08T09:31:16.962Z,16.80
2023-03-08T09:33:49.882Z,16.00
2023-03-08T09:36:17.164Z,14.60
2023-03-08T09:38:46.699Z,13.50
2023-03-08T09:41:13.804Z,13.80
2023-03-08T09:44:04.275Z,13.50
2023-03-08T09:46:38.401Z,13.40
2023-03-08T09:49:13.636Z,14.50
2023-03-08T09:51:45.452Z,14.30
2023-03-08T09:54:18.235Z,13.70
2023-03-08T09:56:56.533Z,13.40
2023-03-08T09:59:47.682Z,14.10
2023-03-08T10:02:26.261Z,14.90
2023-03-08T10:05:13.291Z,13.00
2023-03-08T10:08:07.378Z,10.80
2023-03-08T10:10:49.920Z,8.90
2023-03-08T10:13:30.635Z,9.40
2023-03-08T10:16:10.792Z,9.00
2023-03-08T10:19:03.646Z,8.10
2023-03-08T10:21:36.820Z,7.60
2023-03-08T10:24:15.695Z,7.20
2023-03-08T10:26:45.570Z,6.80
2023-03-08T10:29:14.101Z,6.20
2023-03-08T10:31:44.124Z,5.50
2023-03-08T10:34:15.567Z,5.10
2023-03-08T10:37:00.135Z,5.10
2023-03-08T10:39:27.641Z,4.90
2023-03-08T10:42:00.564Z,4.60
2023-03-08T10:44:33.961Z,4.30
2023-03-08T10:47:04.682Z,4.00
2023-03-08T10:49:32.094Z,3.70
2023-03-08T10:52:01.353Z,3.60
2023-03-08T10:54:29.484Z,3.50
2023-03-08T10:57:02.181Z,3.40
2023-03-08T10:59:33.038Z,3.50
2023-03-08T11:02:18.699Z,3.90
2023-03-08T11:04:59.679Z,4.20
2023-03-08T11:07:30.794Z,4.10
2023-03-08T11:10:13.439Z,3.90
2023-03-08T11:12:41.811Z,3.80
2023-03-08T11:15:20.435Z,3.90
2023-03-08T11:18:17.823Z,3.90
2023-03-08T11:21:00.642Z,3.90
2023-03-08T11:24:05.433Z,3.70
2023-03-08T11:26:55.734Z,3.60
2023-03-08T11:29:35.878Z,3.70
2023-03-08T11:32:53.466Z,3.70
2023-03-08T11:35:29.694Z,3.70
2023-03-08T11:38:17.826Z,3.80
2023-03-08T11:41:09.208Z,3.90
2023-03-08T11:44:15.082Z,3.90
2023-03-08T11:46:54.437Z,3.90
2023-03-08T11:49:55.088Z,3.80
2023-03-08T11:52:41.858Z,3.60
2023-03-08T11:55:46.894Z,3.60
2023-03-08T11:58:23.118Z,3.80
2023-03-08T12:00:53.537Z,3.80
2023-03-08T12:03:26.613Z,4.00
2023-03-08T12:06:22.686Z,3.90
2023-03-08T12:09:08.155Z,3.90
2023-03-08T12:11:46.295Z,4.00
2023-03-08T12:14:19.370Z,4.20
2023-03-08T12:16:56.446Z,2.50
2023-03-08T12:19:51.644Z,4.40
2023-03-08T12:22:39.297Z,4.20
2023-03-08T12:25:22.044Z,4.40
2023-03-08T12:28:02.651Z,4.30
2023-03-08T12:30:38.974Z,3.30
2023-03-08T12:33:10.006Z,4.40
2023-03-08T12:35:49.986Z,4.70
2023-03-08T12:38:20.282Z,5.10
2023-03-08T12:40:55.306Z,5.20
2023-03-08T12:43:22.261Z,5.10
2023-03-08T12:46:10.292Z,5.10
2023-03-08T12:48:49.254Z,5.10
2023-03-08T12:51:21.957Z,5.00
2023-03-08T12:53:49.149Z,5.10
2023-03-08T12:56:29.929Z,5.00
2023-03-08T12:59:03.778Z,5.10
2023-03-08T13:01:56.978Z,5.10
2023-03-08T13:04:39.280Z,5.00
2023-03-08T13:07:29.355Z,4.90
2023-03-08T13:09:56.429Z,4.80
2023-03-08T13:12:50.326Z,4.80
2023-03-08T13:15:23.034Z,4.90
2023-03-08T13:18:00.915Z,5.10
2023-03-08T13:20:41.758Z,5.00
2023-03-08T13:23:16.177Z,5.00
2023-03-08T13:26:07.008Z,5.00
2023-03-08T13:28:48.116Z,5.10
2023-03-08T13:31:18.421Z,5.20
2023-03-08T13:33:52.764Z,5.30
2023-03-08T13:36:29.910Z,5.30
2023-03-08T13:39:01.677Z,5.20
2023-03-08T13:41:41.781Z,5.30
2023-03-08T13:44:18.100Z,5.60
2023-03-08T13:46:46.632Z,5.80
2023-03-08T13:49:23.629Z,5.90
2023-03-08T13:51:53.842Z,6.00
2023-03-08T13:54:50.457Z,7.30
2023-03-08T13:57:33.726Z,5.90
2023-03-08T14:00:16.954Z,5.90
2023-03-08T14:02:46.989Z,5.70
2023-03-08T14:05:23.934Z,5.60
2023-03-08T14:07:59.098Z,5.50
2023-03-08T14:10:32.621Z,5.40
2023-03-08T14:12:59.846Z,5.20
2023-03-08T14:15:27.356Z,5.20
2023-03-08T14:17:54.435Z,5.20
2023-03-08T14:20:24.052Z,5.10
2023-03-08T14:22:54.729Z,5.00
2023-03-08T14:25:24.110Z,4.90
2023-03-08T14:27:51.621Z,4.80
2023-03-08T14:30:22.817Z,4.70
2023-03-08T14:33:14.623Z,4.50
2023-03-08T14:35:52.012Z,4.40
2023-03-08T14:38:28.237Z,4.40
2023-03-08T14:40:56.514Z,4.40
2023-03-08T14:43:26.029Z,4.40
2023-03-08T14:46:00.992Z,4.30
2023-03-08T14:48:36.050Z,4.20
2023-03-08T14:51:31.172Z,4.20
2023-03-08T14:54:18.260Z,4.10
2023-03-08T14:56:46.882Z,4.00
2023-03-08T14:59:25.233Z,3.90
2023-03-08T15:01:54.870Z,3.90
2023-03-08T15:04:24.873Z,3.90
2023-03-08T15:06:54.609Z,3.90
2023-03-08T15:09:22.948Z,3.80
2023-03-08T15:11:52.770Z,3.90
2023-03-08T15:14:19.849Z,4.00
2023-03-08T15:16:47.457Z,3.90
2023-03-08T15:19:14.443Z,3.90
2023-03-08T15:21:42.256Z,3.90
2023-03-08T15:24:17.401Z,3.90
2023-03-08T15:26:45.840Z,3.80
2023-03-08T15:29:20.504Z,3.80
2023-03-08T15:31:48.016Z,3.80
2023-03-08T15:34:15.034Z,3.80
2023-03-08T15:36:42.406Z,3.80
2023-03-08T15:39:12.580Z,3.80
2023-03-08T15:41:40.494Z,3.70
2023-03-08T15:44:07.882Z,3.60
2023-03-08T15:46:35.576Z,3.50
2023-03-08T15:49:02.930Z,3.70
2023-03-08T15:51:33.301Z,3.40
2023-03-08T15:54:00.461Z,5.30
2023-03-08T15:56:28.382Z,3.20
2023-03-08T15:58:55.467Z,3.10
2023-03-08T16:01:25.552Z,3.00
2023-03-08T16:03:54.266Z,2.90
2023-03-08T16:06:22.609Z,2.90
2023-03-08T16:08:49.804Z,2.80
2023-03-08T16:11:22.314Z,2.70
2023-03-08T16:13:53.554Z,3.20
2023-03-08T16:16:27.617Z,2.50
2023-03-08T16:18:59.220Z,2.40
2023-03-08T16:21:27.109Z,2.30
2023-03-08T16:23:54.159Z,2.20
2023-03-08T16:26:21.937Z,2.10
2023-03-08T16:28:48.904Z,2.00
2023-03-08T16:31:19.800Z,1.90
2023-03-08T16:33:46.818Z,1.90
2023-03-08T16:36:14.507Z,1.80
2023-03-08T16:38:41.894Z,1.60
2023-03-08T16:41:13.289Z,1.50
2023-03-08T16:43:49.801Z,1.50
2023-03-08T16:46:22.268Z,1.40
2023-03-08T16:48:51.263Z,1.30
2023-03-08T16:51:20.304Z,1.20
2023-03-08T16:53:48.085Z,1.20
2023-03-08T16:56:26.656Z,1.20
2023-03-08T16:58:55.848Z,1.20
2023-03-08T17:01:23.902Z,1.20
2023-03-08T17:03:52.150Z,1.20
2023-03-08T17:06:22.731Z,1.20
2023-03-08T17:08:49.949Z,1.20
2023-03-08T17:11:19.369Z,1.10
2023-03-08T17:13:51.266Z,1.10
2023-03-08T17:16:31.859Z,1.10
2023-03-08T17:19:00.569Z,1.10
2023-03-08T17:21:29.416Z,1.10
2023-03-08T17:23:57.436Z,1.00
2023-03-08T17:26:25.072Z,1.00
2023-03-08T17:28:53.826Z,0.90
2023-03-08T17:31:23.286Z,1.00
2023-03-08T17:33:51.220Z,0.90
2023-03-08T17:36:19.464Z,0.80
2023-03-08T17:38:46.824Z,0.80
2023-03-08T17:41:16.044Z,0.80
2023-03-08T17:43:43.011Z,0.70
2023-03-08T17:46:28.770Z,0.70
2023-03-08T17:48:56.336Z,0.70
2023-03-08T17:51:27.347Z,0.70
2023-03-08T17:53:54.747Z,0.70
2023-03-08T17:56:26.468Z,0.60
2023-03-08T17:58:56.054Z,0.60
2023-03-08T18:01:25.851Z,0.60
2023-03-08T18:03:55.450Z,0.60
2023-03-08T18:06:28.245Z,0.60
2023-03-08T18:08:56.625Z,0.60
2023-03-08T18:11:25.088Z,0.60
2023-03-08T18:13:52.923Z,0.60
2023-03-08T18:16:21.917Z,0.50
2023-03-08T18:18:50.191Z,0.60
2023-03-08T18:21:18.903Z,0.60
2023-03-08T18:23:47.008Z,0.50
2023-03-08T18:26:18.644Z,0.60
2023-03-08T18:28:46.156Z,0.50
2023-03-08T18:31:21.010Z,0.50
2023-03-08T18:33:47.995Z,0.50
2023-03-08T18:36:16.265Z,0.50
2023-03-08T18:38:43.653Z,0.50
2023-03-08T18:41:16.502Z,0.50
2023-03-08T18:43:43.787Z,0.40
2023-03-08T18:46:13.020Z,0.40
2023-03-08T18:48:41.000Z,0.40
2023-03-08T18:51:08.290Z,0.40
2023-03-08T18:53:35.387Z,0.40
2023-03-08T18:56:04.704Z,0.50
2023-03-08T18:58:32.363Z,0.40
2023-03-08T19:01:02.917Z,0.40
2023-03-08T19:03:30.655Z,0.40
2023-03-08T19:06:02.580Z,0.40
2023-03-08T19:08:29.755Z,0.40
2023-03-08T19:10:58.075Z,0.40
2023-03-08T19:13:25.560Z,0.40
2023-03-08T19:15:53.006Z,0.40
2023-03-08T19:18:19.921Z,0.40
2023-03-08T19:20:47.300Z,0.40
2023-03-08T19:23:14.457Z,0.40
2023-03-08T19:26:00.711Z,3.20
2023-03-08T19:28:27.926Z,0.40
2023-03-08T19:30:55.878Z,0.40
2023-03-08T19:33:30.977Z,0.40
2023-03-08T19:35:59.001Z,0.40
2023-03-08T19:38:26.025Z,0.40
2023-03-08T19:40:53.347Z,0.40
2023-03-08T19:43:20.375Z,0.40
2023-03-08T19:45:51.027Z,0.40
2023-03-08T19:48:18.057Z,0.40
2023-03-08T19:50:46.377Z,0.40
2023-03-08T19:53:13.527Z,0.30
2023-03-08T19:55:51.821Z,0.40
2023-03-08T19:58:19.987Z,0.30
2023-03-08T20:00:47.325Z,0.40
2023-03-08T20:03:16.228Z,0.40
2023-03-08T20:05:45.731Z,0.30
2023-03-08T20:08:13.591Z,0.40
2023-03-08T20:10:41.422Z,0.40
2023-03-08T20:13:08.366Z,0.30
2023-03-08T20:15:36.024Z,0.30
2023-03-08T20:18:03.108Z,0.30
2023-03-08T20:20:30.390Z,0.30
2023-03-08T20:22:57.402Z,0.30
2023-03-08T20:25:24.927Z,0.30
2023-03-08T20:27:51.933Z,0.40
2023-03-08T20:30:19.574Z,0.40
2023-03-08T20:32:46.540Z,0.40
2023-03-08T20:35:15.007Z,0.40
2023-03-08T20:37:42.447Z,0.40
2023-03-08T20:40:12.170Z,0.40
2023-03-08T20:42:39.576Z,0.40
2023-03-08T20:45:07.719Z,0.40
2023-03-08T20:47:34.852Z,0.40
2023-03-08T20:50:02.109Z,0.40
2023-03-08T20:52:29.158Z,0.40
2023-03-08T20:54:56.699Z,0.40
2023-03-08T20:57:23.744Z,0.40
2023-03-08T20:59:51.341Z,0.30
2023-03-08T21:02:18.490Z,0.40
2023-03-08T21:04:46.072Z,0.40
2023-03-08T21:07:13.011Z,0.40
2023-03-08T21:09:40.621Z,0.40
2023-03-08T21:12:07.998Z,0.40
2023-03-08T21:14:35.602Z,0.30
2023-03-08T21:17:02.543Z,0.40
2023-03-08T21:19:29.853Z,0.40
2023-03-08T21:21:56.811Z,0.40
2023-03-08T21:24:24.404Z,0.30
2023-03-08T21:26:52.263Z,0.40
2023-03-08T21:29:21.495Z,0.40
2023-03-08T21:31:52.923Z,0.40
2023-03-08T21:34:21.232Z,0.40
2023-03-08T21:36:48.438Z,0.40
2023-03-08T21:39:16.343Z,0.40
2023-03-08T21:41:46.106Z,0.40
2023-03-08T21:44:17.016Z,0.40
2023-03-08T21:46:44.630Z,0.40
2023-03-08T21:49:24.209Z,0.40
2023-03-08T21:51:52.899Z,0.40
2023-03-08T21:54:20.877Z,0.40
2023-03-08T21:56:48.346Z,0.40
2023-03-08T21:59:19.498Z,0.40
2023-03-08T22:01:48.470Z,0.40
2023-03-08T22:04:16.690Z,0.40
2023-03-08T22:06:43.951Z,0.40
2023-03-08T22:11:38.759Z,0.30
2023-03-08T22:14:06.836Z,0.30
2023-03-08T22:16:37.842Z,0.30
2023-03-08T22:19:05.675Z,0.30
2023-03-08T22:21:32.695Z,0.30
2023-03-08T22:24:02.184Z,0.30
2023-03-08T22:26:30.279Z,0.30
2023-03-08T22:28:58.450Z,0.30
2023-03-08T22:31:27.239Z,0.30
2023-03-08T22:33:54.706Z,0.30
2023-03-08T22:36:22.278Z,0.30
2023-03-08T22:38:49.536Z,0.30
2023-03-08T22:41:21.992Z,0.30
2023-03-08T22:43:50.431Z,0.30
2023-03-08T22:46:23.434Z,0.30
2023-03-08T22:48:52.765Z,0.30
2023-03-08T22:51:21.474Z,0.30
2023-03-08T22:53:49.605Z,0.60
2023-03-08T22:56:23.847Z,0.30
2023-03-08T22:58:51.421Z,0.30
2023-03-08T23:01:21.347Z,0.30
2023-03-08T23:03:49.844Z,0.30
2023-03-08T23:06:18.377Z,0.30
2023-03-08T23:08:47.037Z,0.30
2023-03-08T23:11:14.416Z,0.20
2023-03-08T23:13:41.906Z,0.10
2023-03-08T23:16:12.583Z,0.10
2023-03-08T23:18:40.705Z,0.10
2023-03-08T23:21:10.844Z,0.30
2023-03-08T23:23:38.434Z,0.10
2023-03-08T23:26:07.860Z,0.10
2023-03-08T23:28:36.447Z,0.10
2023-03-08T23:31:14.793Z,0.10
2023-03-08T23:33:43.065Z,0.10
2023-03-08T23:36:11.862Z,0.10
2023-03-08T23:38:39.600Z,0.10
2023-03-08T23:41:08.626Z,0.10
2023-03-08T23:43:37.414Z,-3.40
2023-03-08T23:46:10.640Z,0.10
2023-03-08T23:48:38.181Z,0.10
2023-03-08T23:51:10.493Z,0.10
2023-03-08T23:53:37.786Z,0.10
2023-03-08T23:56:05.680Z,0.10
2023-03-08T23:58:33.678Z,0.10
